sensor_id;sensor_type;location;lat;lon;timestamp;pressure;altitude;pressure_sealevel;temperature;humidity
15405;BME280;7801;48.124;11.590;2023-02-03T00:00:53;96480.44;;;5.31;92.39
15405;BME280;7801;48.124;11.590;2023-02-03T00:03:18;96478.28;;;5.16;92.40
15405;BME280;7801;48.124;11.590;2023-02-03T00:05:44;96481.50;;;5.18;92.41
15405;BME280;7801;48.124;11.590;2023-02-03T00:08:12;96467.16;;;5.37;91.46
15405;BME280;7801;48.124;11.590;2023-02-03T00:10:39;96476.78;;;5.32;91.25
15405;BME280;7801;48.124;11.590;2023-02-03T00:13:05;96479.84;;;5.40;90.85
15405;BME280;7801;48.124;11.590;2023-02-03T00:15:31;96480.09;;;5.27;91.22
15405;BME280;7801;48.124;11.590;2023-02-03T00:17:56;96486.16;;;5.39;90.74
15405;BME280;7801;48.124;11.590;2023-02-03T00:20:21;96488.44;;;5.36;90.86
15405;BME280;7801;48.124;11.590;2023-02-03T00:22:47;96480.09;;;5.27;90.80
15405;BME280;7801;48.124;11.590;2023-02-03T00:25:12;96481.81;;;5.33;90.51
15405;BME280;7801;48.124;11.590;2023-02-03T00:27:38;96481.94;;;5.38;90.06
15405;BME280;7801;48.124;11.590;2023-02-03T00:30:03;96485.94;;;5.29;89.71
15405;BME280;7801;48.124;11.590;2023-02-03T00:32:29;96484.63;;;5.43;89.83
15405;BME280;7801;48.124;11.590;2023-02-03T00:34:54;96485.91;;;5.41;89.84
15405;BME280;7801;48.124;11.590;2023-02-03T00:37:20;96471.87;;;5.35;89.62
15405;BME280;7801;48.124;11.590;2023-02-03T00:39:48;96470.84;;;5.36;89.39
15405;BME280;7801;48.124;11.590;2023-02-03T00:42:13;96464.53;;;5.37;89.42
15405;BME280;7801;48.124;11.590;2023-02-03T00:44:39;96466.94;;;5.39;89.19
15405;BME280;7801;48.124;11.590;2023-02-03T00:47:04;96463.94;;;5.47;89.26
15405;BME280;7801;48.124;11.590;2023-02-03T00:49:29;96457.75;;;5.53;88.52
15405;BME280;7801;48.124;11.590;2023-02-03T00:51:55;96464.28;;;5.50;88.82
15405;BME280;7801;48.124;11.590;2023-02-03T00:54:20;96464.28;;;5.50;88.24
15405;BME280;7801;48.124;11.590;2023-02-03T00:56:45;96470.69;;;5.55;88.00
15405;BME280;7801;48.124;11.590;2023-02-03T00:59:10;96466.06;;;5.62;87.61
15405;BME280;7801;48.124;11.590;2023-02-03T01:01:36;96468.00;;;5.66;86.98
15405;BME280;7801;48.124;11.590;2023-02-03T01:04:02;96478.69;;;5.60;87.41
15405;BME280;7801;48.124;11.590;2023-02-03T01:06:28;96472.47;;;5.66;87.38
15405;BME280;7801;48.124;11.590;2023-02-03T01:08:54;96480.16;;;5.56;87.78
15405;BME280;7801;48.124;11.590;2023-02-03T01:11:21;96487.50;;;5.53;87.46
15405;BME280;7801;48.124;11.590;2023-02-03T01:13:48;96486.59;;;5.48;87.56
15405;BME280;7801;48.124;11.590;2023-02-03T01:16:17;96485.22;;;5.45;88.70
15405;BME280;7801;48.124;11.590;2023-02-03T01:18:43;96491.38;;;5.51;87.54
15405;BME280;7801;48.124;11.590;2023-02-03T01:21:29;96498.12;;;5.47;87.93
15405;BME280;7801;48.124;11.590;2023-02-03T01:23:55;96493.56;;;5.54;87.22
15405;BME280;7801;48.124;11.590;2023-02-03T01:26:21;96487.16;;;5.50;87.07
15405;BME280;7801;48.124;11.590;2023-02-03T01:28:55;96490.47;;;5.45;87.04
15405;BME280;7801;48.124;11.590;2023-02-03T01:31:26;96491.03;;;5.47;87.55
15405;BME280;7801;48.124;11.590;2023-02-03T01:33:53;96489.66;;;5.57;87.00
15405;BME280;7801;48.124;11.590;2023-02-03T01:36:20;96482.75;;;5.67;86.86
15405;BME280;7801;48.124;11.590;2023-02-03T01:38:45;96484.47;;;5.73;85.75
15405;BME280;7801;48.124;11.590;2023-02-03T01:41:17;96472.94;;;5.63;86.43
15405;BME280;7801;48.124;11.590;2023-02-03T01:43:45;96464.37;;;5.56;86.79
15405;BME280;7801;48.124;11.590;2023-02-03T01:46:17;96473.06;;;5.56;86.79
15405;BME280;7801;48.124;11.590;2023-02-03T01:48:46;96459.34;;;5.54;86.31
15405;BME280;7801;48.124;11.590;2023-02-03T01:51:11;96455.47;;;5.45;86.76
15405;BME280;7801;48.124;11.590;2023-02-03T01:53:36;96461.75;;;5.56;86.66
15405;BME280;7801;48.124;11.590;2023-02-03T01:56:04;96459.13;;;5.56;86.48
15405;BME280;7801;48.124;11.590;2023-02-03T01:58:32;96453.88;;;5.44;86.87
15405;BME280;7801;48.124;11.590;2023-02-03T02:01:00;96462.09;;;5.59;86.25
15405;BME280;7801;48.124;11.590;2023-02-03T02:03:31;96448.81;;;5.54;86.37
15405;BME280;7801;48.124;11.590;2023-02-03T02:06:11;96459.41;;;5.71;85.17
15405;BME280;7801;48.124;11.590;2023-02-03T02:08:37;96450.16;;;5.68;85.96
15405;BME280;7801;48.124;11.590;2023-02-03T02:11:04;96436.63;;;5.76;85.36
15405;BME280;7801;48.124;11.590;2023-02-03T02:13:32;96441.22;;;5.69;85.44
15405;BME280;7801;48.124;11.590;2023-02-03T02:16:15;96445.50;;;5.59;85.86
15405;BME280;7801;48.124;11.590;2023-02-03T02:27:05;96460.44;;;5.70;84.95
15405;BME280;7801;48.124;11.590;2023-02-03T02:29:46;96458.84;;;5.69;85.02
15405;BME280;7801;48.124;11.590;2023-02-03T02:35:14;96448.28;;;5.80;84.06
15405;BME280;7801;48.124;11.590;2023-02-03T02:37:54;96459.28;;;5.77;84.93
15405;BME280;7801;48.124;11.590;2023-02-03T02:43:25;96460.66;;;5.68;84.69
15405;BME280;7801;48.124;11.590;2023-02-03T02:46:01;96463.53;;;5.67;84.63
15405;BME280;7801;48.124;11.590;2023-02-03T02:48:35;96467.66;;;5.63;84.74
15405;BME280;7801;48.124;11.590;2023-02-03T02:51:04;96475.19;;;5.71;84.25
15405;BME280;7801;48.124;11.590;2023-02-03T02:53:59;96477.72;;;5.66;84.01
15405;BME280;7801;48.124;11.590;2023-02-03T02:56:28;96476.47;;;5.68;84.21
15405;BME280;7801;48.124;11.590;2023-02-03T02:58:56;96477.72;;;5.66;84.10
15405;BME280;7801;48.124;11.590;2023-02-03T03:01:23;96465.94;;;5.68;84.61
15405;BME280;7801;48.124;11.590;2023-02-03T03:03:49;96470.13;;;5.93;83.13
15405;BME280;7801;48.124;11.590;2023-02-03T03:06:21;96455.00;;;5.88;83.59
15405;BME280;7801;48.124;11.590;2023-02-03T03:08:55;96452.97;;;5.78;83.76
15405;BME280;7801;48.124;11.590;2023-02-03T03:11:25;96456.03;;;5.59;84.15
15405;BME280;7801;48.124;11.590;2023-02-03T03:13:53;96457.25;;;5.68;84.46
15405;BME280;7801;48.124;11.590;2023-02-03T03:16:23;96459.06;;;5.67;84.39
15405;BME280;7801;48.124;11.590;2023-02-03T03:18:53;96435.44;;;5.56;84.30
15405;BME280;7801;48.124;11.590;2023-02-03T03:21:27;96449.63;;;5.83;83.43
15405;BME280;7801;48.124;11.590;2023-02-03T03:23:58;96463.34;;;5.85;82.92
15405;BME280;7801;48.124;11.590;2023-02-03T03:26:30;96463.72;;;5.89;83.01
15405;BME280;7801;48.124;11.590;2023-02-03T03:32:05;96461.47;;;5.69;83.54
15405;BME280;7801;48.124;11.590;2023-02-03T03:34:31;96459.47;;;5.87;82.61
15405;BME280;7801;48.124;11.590;2023-02-03T03:37:01;96455.28;;;5.75;82.79
15405;BME280;7801;48.124;11.590;2023-02-03T03:51:13;96421.41;;;5.78;82.34
15405;BME280;7801;48.124;11.590;2023-02-03T03:53:41;96421.97;;;5.80;82.34
15405;BME280;7801;48.124;11.590;2023-02-03T03:56:11;96427.94;;;5.64;82.18
15405;BME280;7801;48.124;11.590;2023-02-03T03:58:43;96435.63;;;5.66;82.39
15405;BME280;7801;48.124;11.590;2023-02-03T04:01:12;96441.87;;;5.76;82.11
15405;BME280;7801;48.124;11.590;2023-02-03T04:03:45;96440.94;;;5.82;82.05
15405;BME280;7801;48.124;11.590;2023-02-03T04:06:12;96435.81;;;5.76;82.04
15405;BME280;7801;48.124;11.590;2023-02-03T04:08:38;96443.16;;;5.74;82.43
15405;BME280;7801;48.124;11.590;2023-02-03T04:11:04;96436.38;;;5.78;82.82
15405;BME280;7801;48.124;11.590;2023-02-03T04:13:30;96428.97;;;5.63;82.34
15405;BME280;7801;48.124;11.590;2023-02-03T04:15:55;96442.75;;;5.82;81.81
15405;BME280;7801;48.124;11.590;2023-02-03T04:18:22;96440.63;;;5.79;82.02
15405;BME280;7801;48.124;11.590;2023-02-03T04:20:47;96445.38;;;5.82;81.69
15405;BME280;7801;48.124;11.590;2023-02-03T04:23:12;96461.94;;;5.66;81.85
15405;BME280;7801;48.124;11.590;2023-02-03T04:25:38;96457.81;;;5.70;81.87
15405;BME280;7801;48.124;11.590;2023-02-03T04:28:03;96448.59;;;5.84;81.48
15405;BME280;7801;48.124;11.590;2023-02-03T04:30:30;96459.25;;;5.89;81.25
15405;BME280;7801;48.124;11.590;2023-02-03T04:32:55;96456.63;;;5.89;80.66
15405;BME280;7801;48.124;11.590;2023-02-03T04:35:21;96463.06;;;5.81;81.16
15405;BME280;7801;48.124;11.590;2023-02-03T04:37:46;96470.16;;;5.81;80.61
15405;BME280;7801;48.124;11.590;2023-02-03T04:40:11;96466.34;;;5.89;80.81
15405;BME280;7801;48.124;11.590;2023-02-03T04:42:38;96455.06;;;5.76;80.63
15405;BME280;7801;48.124;11.590;2023-02-03T04:45:06;96449.69;;;5.71;80.73
15405;BME280;7801;48.124;11.590;2023-02-03T04:47:32;96446.53;;;5.86;80.60
15405;BME280;7801;48.124;11.590;2023-02-03T04:49:57;96466.44;;;5.82;80.53
15405;BME280;7801;48.124;11.590;2023-02-03T04:52:23;96476.97;;;5.82;80.46
15405;BME280;7801;48.124;11.590;2023-02-03T04:54:48;96487.78;;;5.69;80.71
15405;BME280;7801;48.124;11.590;2023-02-03T04:57:14;96493.66;;;5.59;80.76
15405;BME280;7801;48.124;11.590;2023-02-03T04:59:39;96482.06;;;5.72;80.66
15405;BME280;7801;48.124;11.590;2023-02-03T05:02:04;96461.69;;;5.67;80.39
15405;BME280;7801;48.124;11.590;2023-02-03T05:04:30;96463.19;;;5.75;80.94
15405;BME280;7801;48.124;11.590;2023-02-03T05:06:55;96474.06;;;5.67;80.54
15405;BME280;7801;48.124;11.590;2023-02-03T05:09:22;96461.97;;;5.54;81.36
15405;BME280;7801;48.124;11.590;2023-02-03T05:11:49;96460.66;;;5.68;81.05
15405;BME280;7801;48.124;11.590;2023-02-03T05:14:15;96456.44;;;5.67;80.94
15405;BME280;7801;48.124;11.590;2023-02-03T05:16:41;96461.44;;;5.80;80.69
15405;BME280;7801;48.124;11.590;2023-02-03T05:19:06;96471.66;;;5.77;80.32
15405;BME280;7801;48.124;11.590;2023-02-03T05:21:32;96461.69;;;5.79;80.36
15405;BME280;7801;48.124;11.590;2023-02-03T05:23:58;96473.59;;;5.70;80.94
15405;BME280;7801;48.124;11.590;2023-02-03T05:26:24;96470.63;;;5.78;80.26
15405;BME280;7801;48.124;11.590;2023-02-03T05:28:49;96463.87;;;5.70;80.61
15405;BME280;7801;48.124;11.590;2023-02-03T05:31:15;96461.47;;;5.69;81.21
15405;BME280;7801;48.124;11.590;2023-02-03T05:33:40;96459.75;;;5.74;80.20
15405;BME280;7801;48.124;11.590;2023-02-03T05:36:05;96459.63;;;5.69;80.87
15405;BME280;7801;48.124;11.590;2023-02-03T05:38:32;96443.97;;;5.63;80.81
15405;BME280;7801;48.124;11.590;2023-02-03T05:40:59;96453.34;;;5.70;81.11
15405;BME280;7801;48.124;11.590;2023-02-03T05:43:43;96440.22;;;5.59;81.79
15405;BME280;7801;48.124;11.590;2023-02-03T05:46:09;96440.47;;;5.57;81.35
15405;BME280;7801;48.124;11.590;2023-02-03T05:48:34;96434.34;;;5.68;81.55
15405;BME280;7801;48.124;11.590;2023-02-03T05:50:59;96426.31;;;5.75;80.80
15405;BME280;7801;48.124;11.590;2023-02-03T05:53:25;96419.81;;;5.66;81.46
15405;BME280;7801;48.124;11.590;2023-02-03T05:55:51;96413.91;;;5.59;81.22
15405;BME280;7801;48.124;11.590;2023-02-03T05:58:17;96410.78;;;5.62;80.96
15405;BME280;7801;48.124;11.590;2023-02-03T06:00:42;96425.94;;;5.55;81.60
15405;BME280;7801;48.124;11.590;2023-02-03T06:03:09;96433.87;;;5.71;81.58
15405;BME280;7801;48.124;11.590;2023-02-03T06:05:35;96437.78;;;5.69;81.09
15405;BME280;7801;48.124;11.590;2023-02-03T06:08:06;96439.44;;;5.58;81.87
15405;BME280;7801;48.124;11.590;2023-02-03T06:10:31;96452.03;;;5.56;81.88
15405;BME280;7801;48.124;11.590;2023-02-03T06:12:57;96453.28;;;5.53;81.47
15405;BME280;7801;48.124;11.590;2023-02-03T06:15:22;96453.84;;;5.56;81.63
15405;BME280;7801;48.124;11.590;2023-02-03T06:17:48;96453.97;;;5.61;81.70
15405;BME280;7801;48.124;11.590;2023-02-03T06:20:15;96464.03;;;5.52;81.75
15405;BME280;7801;48.124;11.590;2023-02-03T06:22:41;96455.53;;;5.62;81.59
15405;BME280;7801;48.124;11.590;2023-02-03T06:25:07;96448.41;;;5.74;80.72
15405;BME280;7801;48.124;11.590;2023-02-03T06:27:33;96438.47;;;5.64;81.05
15405;BME280;7801;48.124;11.590;2023-02-03T06:29:58;96443.50;;;5.66;80.81
15405;BME280;7801;48.124;11.590;2023-02-03T06:32:24;96450.16;;;5.68;80.57
15405;BME280;7801;48.124;11.590;2023-02-03T06:34:49;96475.78;;;5.61;80.89
15405;BME280;7801;48.124;11.590;2023-02-03T06:37:15;96467.00;;;5.56;80.45
15405;BME280;7801;48.124;11.590;2023-02-03T06:39:40;96462.22;;;5.52;80.84
15405;BME280;7801;48.124;11.590;2023-02-03T06:42:06;96443.28;;;5.67;80.43
15405;BME280;7801;48.124;11.590;2023-02-03T06:44:31;96443.50;;;5.66;80.51
15405;BME280;7801;48.124;11.590;2023-02-03T06:46:56;96439.09;;;5.55;80.54
15405;BME280;7801;48.124;11.590;2023-02-03T06:49:22;96447.41;;;5.63;80.79
15405;BME280;7801;48.124;11.590;2023-02-03T06:51:48;96435.31;;;5.50;81.21
15405;BME280;7801;48.124;11.590;2023-02-03T06:54:13;96453.50;;;5.52;81.37
15405;BME280;7801;48.124;11.590;2023-02-03T06:56:39;96458.09;;;5.57;81.84
15405;BME280;7801;48.124;11.590;2023-02-03T06:59:05;96467.19;;;5.66;81.31
15405;BME280;7801;48.124;11.590;2023-02-03T07:01:31;96471.06;;;5.75;80.98
15405;BME280;7801;48.124;11.590;2023-02-03T07:03:57;96473.50;;;5.65;81.64
15405;BME280;7801;48.124;11.590;2023-02-03T07:06:27;96472.34;;;5.72;82.04
15405;BME280;7801;48.124;11.590;2023-02-03T07:08:59;96462.16;;;5.64;81.32
15405;BME280;7801;48.124;11.590;2023-02-03T07:11:24;96469.00;;;5.77;81.17
15405;BME280;7801;48.124;11.590;2023-02-03T07:13:51;96470.88;;;5.65;81.26
15405;BME280;7801;48.124;11.590;2023-02-03T07:16:17;96470.06;;;5.64;81.41
15405;BME280;7801;48.124;11.590;2023-02-03T07:18:44;96452.66;;;5.75;81.19
15405;BME280;7801;48.124;11.590;2023-02-03T07:21:10;96447.25;;;5.81;80.99
15405;BME280;7801;48.124;11.590;2023-02-03T07:23:35;96450.28;;;5.62;80.51
15405;BME280;7801;48.124;11.590;2023-02-03T07:26:05;96448.53;;;5.67;80.32
15405;BME280;7801;48.124;11.590;2023-02-03T07:28:32;96438.91;;;5.73;80.42
15405;BME280;7801;48.124;11.590;2023-02-03T07:30:57;96445.38;;;5.82;79.81
15405;BME280;7801;48.124;11.590;2023-02-03T07:33:23;96433.28;;;5.81;79.52
15405;BME280;7801;48.124;11.590;2023-02-03T07:35:55;96440.97;;;5.71;79.48
15405;BME280;7801;48.124;11.590;2023-02-03T07:38:21;96436.38;;;5.78;80.12
15405;BME280;7801;48.124;11.590;2023-02-03T07:40:47;96421.00;;;5.86;79.50
15405;BME280;7801;48.124;11.590;2023-02-03T07:43:12;96410.59;;;5.92;79.16
15405;BME280;7801;48.124;11.590;2023-02-03T07:45:38;96422.59;;;5.87;79.03
15405;BME280;7801;48.124;11.590;2023-02-03T07:48:03;96417.69;;;5.91;80.34
15405;BME280;7801;48.124;11.590;2023-02-03T07:50:29;96393.78;;;8.81;95.66
15405;BME280;7801;48.124;11.590;2023-02-03T07:52:54;96388.50;;;10.37;85.10
15405;BME280;7801;48.124;11.590;2023-02-03T07:55:20;96380.97;;;11.84;73.20
15405;BME280;7801;48.124;11.590;2023-02-03T07:57:45;96372.22;;;12.86;67.91
15405;BME280;7801;48.124;11.590;2023-02-03T08:00:12;96380.47;;;11.72;56.22
15405;BME280;7801;48.124;11.590;2023-02-03T08:02:39;96394.03;;;9.27;62.22
15405;BME280;7801;48.124;11.590;2023-02-03T08:05:05;96400.19;;;8.53;65.35
15405;BME280;7801;48.124;11.590;2023-02-03T08:07:31;96397.16;;;7.81;68.48
15405;BME280;7801;48.124;11.590;2023-02-03T08:09:57;96409.84;;;7.35;71.14
15405;BME280;7801;48.124;11.590;2023-02-03T08:12:23;96404.31;;;7.15;71.16
15405;BME280;7801;48.124;11.590;2023-02-03T08:14:48;96394.31;;;6.78;73.27
15405;BME280;7801;48.124;11.590;2023-02-03T08:17:14;96407.66;;;6.72;73.79
15405;BME280;7801;48.124;11.590;2023-02-03T08:19:39;96391.53;;;6.68;74.00
15405;BME280;7801;48.124;11.590;2023-02-03T08:22:04;96416.97;;;6.58;74.26
15405;BME280;7801;48.124;11.590;2023-02-03T08:24:30;96431.41;;;6.55;74.02
15405;BME280;7801;48.124;11.590;2023-02-03T08:26:55;96426.00;;;6.62;73.54
15405;BME280;7801;48.124;11.590;2023-02-03T08:29:21;96414.16;;;6.64;74.00
15405;BME280;7801;48.124;11.590;2023-02-03T08:31:46;96421.09;;;6.53;74.43
15405;BME280;7801;48.124;11.590;2023-02-03T08:34:11;96423.34;;;6.62;74.06
15405;BME280;7801;48.124;11.590;2023-02-03T08:36:37;96428.38;;;6.63;73.45
15405;BME280;7801;48.124;11.590;2023-02-03T08:39:05;96438.38;;;6.61;74.49
15405;BME280;7801;48.124;11.590;2023-02-03T08:41:30;96440.78;;;6.63;74.76
15405;BME280;7801;48.124;11.590;2023-02-03T08:43:58;96439.00;;;6.68;73.89
15405;BME280;7801;48.124;11.590;2023-02-03T08:46:23;96451.59;;;6.66;73.18
15405;BME280;7801;48.124;11.590;2023-02-03T08:48:49;96436.34;;;6.51;73.86
15405;BME280;7801;48.124;11.590;2023-02-03T08:51:15;96440.81;;;6.68;73.80
15405;BME280;7801;48.124;11.590;2023-02-03T08:53:41;96429.19;;;6.64;73.49
15405;BME280;7801;48.124;11.590;2023-02-03T08:56:09;96410.00;;;6.85;72.73
15405;BME280;7801;48.124;11.590;2023-02-03T08:58:35;96410.53;;;6.70;72.35
15405;BME280;7801;48.124;11.590;2023-02-03T09:01:14;96376.50;;;6.85;73.06
15405;BME280;7801;48.124;11.590;2023-02-03T09:03:40;96400.03;;;6.92;73.11
15405;BME280;7801;48.124;11.590;2023-02-03T09:06:06;96391.88;;;6.94;71.90
15405;BME280;7801;48.124;11.590;2023-02-03T09:08:32;96393.50;;;6.95;71.94
15405;BME280;7801;48.124;11.590;2023-02-03T09:10:58;96402.91;;;6.90;71.47
15405;BME280;7801;48.124;11.590;2023-02-03T09:13:23;96388.69;;;6.92;72.07
15405;BME280;7801;48.124;11.590;2023-02-03T09:15:50;96372.16;;;6.96;71.91
15405;BME280;7801;48.124;11.590;2023-02-03T09:18:15;96378.78;;;6.99;71.64
15405;BME280;7801;48.124;11.590;2023-02-03T09:20:40;96400.28;;;6.90;70.61
15405;BME280;7801;48.124;11.590;2023-02-03T09:23:06;96389.31;;;6.99;71.38
15405;BME280;7801;48.124;11.590;2023-02-03T09:25:32;96407.97;;;6.92;71.11
15405;BME280;7801;48.124;11.590;2023-02-03T09:27:57;96401.56;;;7.05;71.12
15405;BME280;7801;48.124;11.590;2023-02-03T09:30:22;96409.31;;;6.95;70.65
15405;BME280;7801;48.124;11.590;2023-02-03T09:32:51;96378.69;;;6.94;71.79
15405;BME280;7801;48.124;11.590;2023-02-03T09:35:19;96404.72;;;7.07;71.63
15405;BME280;7801;48.124;11.590;2023-02-03T09:37:44;96403.22;;;7.33;71.22
15405;BME280;7801;48.124;11.590;2023-02-03T09:40:19;96403.75;;;7.35;70.71
15405;BME280;7801;48.124;11.590;2023-02-03T09:45:28;96384.41;;;7.29;69.78
15405;BME280;7801;48.124;11.590;2023-02-03T09:48:20;96395.91;;;7.18;70.22
15405;BME280;7801;48.124;11.590;2023-02-03T09:50:45;96389.53;;;7.36;70.08
15405;BME280;7801;48.124;11.590;2023-02-03T09:55:54;96400.09;;;7.84;70.60
15405;BME280;7801;48.124;11.590;2023-02-03T09:58:20;96402.38;;;7.76;68.72
15405;BME280;7801;48.124;11.590;2023-02-03T10:00:55;96413.06;;;7.86;68.65
15405;BME280;7801;48.124;11.590;2023-02-03T10:09:00;96380.87;;;8.21;69.70
15405;BME280;7801;48.124;11.590;2023-02-03T10:19:52;96423.91;;;7.63;66.87
15405;BME280;7801;48.124;11.590;2023-02-03T10:22:22;96418.56;;;7.57;68.14
15405;BME280;7801;48.124;11.590;2023-02-03T10:25:04;96396.06;;;7.55;69.10
15405;BME280;7801;48.124;11.590;2023-02-03T10:27:32;96410.69;;;7.63;68.39
15405;BME280;7801;48.124;11.590;2023-02-03T10:30:22;96404.06;;;7.60;68.03
15405;BME280;7801;48.124;11.590;2023-02-03T10:32:50;96385.81;;;7.58;67.45
15405;BME280;7801;48.124;11.590;2023-02-03T10:35:20;96382.75;;;7.67;67.95
15405;BME280;7801;48.124;11.590;2023-02-03T10:37:50;96387.81;;;7.73;69.68
15405;BME280;7801;48.124;11.590;2023-02-03T10:40:21;96415.78;;;7.69;67.87
15405;BME280;7801;48.124;11.590;2023-02-03T10:42:49;96393.09;;;7.73;67.99
15405;BME280;7801;48.124;11.590;2023-02-03T10:45:36;96393.31;;;7.67;69.14
15405;BME280;7801;48.124;11.590;2023-02-03T10:48:04;96381.66;;;7.63;67.84
15405;BME280;7801;48.124;11.590;2023-02-03T10:50:31;96391.78;;;7.49;67.69
15405;BME280;7801;48.124;11.590;2023-02-03T10:55:49;96369.97;;;7.58;68.67
15405;BME280;7801;48.124;11.590;2023-02-03T10:58:26;96366.19;;;7.49;68.37
15405;BME280;7801;48.124;11.590;2023-02-03T11:01:10;96369.34;;;7.46;68.46
15405;BME280;7801;48.124;11.590;2023-02-03T11:03:43;96383.81;;;7.44;68.43
15405;BME280;7801;48.124;11.590;2023-02-03T11:06:15;96374.84;;;7.45;68.36
15405;BME280;7801;48.124;11.590;2023-02-03T11:08:43;96375.59;;;7.40;67.90
15405;BME280;7801;48.124;11.590;2023-02-03T11:11:21;96383.44;;;7.35;68.26
15405;BME280;7801;48.124;11.590;2023-02-03T11:14:10;96374.09;;;7.49;67.38
15405;BME280;7801;48.124;11.590;2023-02-03T11:16:37;96372.78;;;7.47;67.70
15405;BME280;7801;48.124;11.590;2023-02-03T11:19:04;96359.53;;;7.69;66.96
15405;BME280;7801;48.124;11.590;2023-02-03T11:24:27;96359.53;;;7.69;66.60
15405;BME280;7801;48.124;11.590;2023-02-03T11:27:15;96346.34;;;7.69;67.34
15405;BME280;7801;48.124;11.590;2023-02-03T11:29:44;96347.53;;;7.83;66.64
15405;BME280;7801;48.124;11.590;2023-02-03T11:32:23;96341.56;;;7.66;66.54
15405;BME280;7801;48.124;11.590;2023-02-03T11:35:20;96333.41;;;7.72;66.91
15405;BME280;7801;48.124;11.590;2023-02-03T11:37:49;96333.75;;;7.81;65.90
15405;BME280;7801;48.124;11.590;2023-02-03T11:43:02;96329.47;;;7.75;66.37
15405;BME280;7801;48.124;11.590;2023-02-03T11:48:25;96303.63;;;7.77;65.62
15405;BME280;7801;48.124;11.590;2023-02-03T11:59:09;96304.78;;;7.91;65.08
15405;BME280;7801;48.124;11.590;2023-02-03T12:01:49;96294.84;;;8.03;64.91
15405;BME280;7801;48.124;11.590;2023-02-03T12:09:45;96281.66;;;8.03;64.21
15405;BME280;7801;48.124;11.590;2023-02-03T12:15:39;96285.03;;;8.31;64.50
15405;BME280;7801;48.124;11.590;2023-02-03T12:21:09;96275.28;;;8.36;63.37
15405;BME280;7801;48.124;11.590;2023-02-03T12:26:49;96275.78;;;8.33;62.25
15405;BME280;7801;48.124;11.590;2023-02-03T12:29:30;96282.28;;;8.20;63.34
15405;BME280;7801;48.124;11.590;2023-02-03T12:32:22;96254.72;;;8.06;63.42
15405;BME280;7801;48.124;11.590;2023-02-03T12:35:26;96257.31;;;8.01;63.58
15405;BME280;7801;48.124;11.590;2023-02-03T12:37:59;96239.72;;;8.17;63.21
15405;BME280;7801;48.124;11.590;2023-02-03T12:40:40;96223.72;;;8.34;63.13
15405;BME280;7801;48.124;11.590;2023-02-03T12:43:30;96229.50;;;8.31;63.15
15405;BME280;7801;48.124;11.590;2023-02-03T12:49:02;96220.66;;;8.15;62.84
15405;BME280;7801;48.124;11.590;2023-02-03T12:51:48;96220.41;;;8.16;63.24
15405;BME280;7801;48.124;11.590;2023-02-03T13:05:49;96200.22;;;8.37;62.95
15405;BME280;7801;48.124;11.590;2023-02-03T13:08:26;96197.75;;;8.25;62.76
15405;BME280;7801;48.124;11.590;2023-02-03T13:11:09;96190.56;;;8.16;64.46
15405;BME280;7801;48.124;11.590;2023-02-03T13:13:41;96193.41;;;8.04;63.87
15405;BME280;7801;48.124;11.590;2023-02-03T13:16:10;96187.53;;;7.97;63.73
15405;BME280;7801;48.124;11.590;2023-02-03T13:18:41;96191.47;;;7.94;64.48
15405;BME280;7801;48.124;11.590;2023-02-03T13:21:10;96185.09;;;7.90;64.79
15405;BME280;7801;48.124;11.590;2023-02-03T13:23:36;96183.59;;;8.00;65.43
15405;BME280;7801;48.124;11.590;2023-02-03T13:41:37;96177.97;;;7.91;65.75
15405;BME280;7801;48.124;11.590;2023-02-03T13:44:11;96180.63;;;7.91;65.53
15405;BME280;7801;48.124;11.590;2023-02-03T13:46:38;96163.72;;;7.92;66.23
15405;BME280;7801;48.124;11.590;2023-02-03T13:49:05;96166.59;;;7.85;65.26
15405;BME280;7801;48.124;11.590;2023-02-03T13:51:35;96151.72;;;7.74;67.43
15405;BME280;7801;48.124;11.590;2023-02-03T13:54:24;96137.97;;;7.72;66.22
15405;BME280;7801;48.124;11.590;2023-02-03T13:57:02;96140.53;;;7.99;66.54
15405;BME280;7801;48.124;11.590;2023-02-03T14:02:29;96153.81;;;8.09;65.99
15405;BME280;7801;48.124;11.590;2023-02-03T14:04:57;96152.59;;;7.85;66.71
15405;BME280;7801;48.124;11.590;2023-02-03T14:07:36;96138.81;;;7.78;66.25
15405;BME280;7801;48.124;11.590;2023-02-03T14:12:57;96141.91;;;7.65;66.33
15405;BME280;7801;48.124;11.590;2023-02-03T14:15:31;96111.88;;;7.76;65.98
15405;BME280;7801;48.124;11.590;2023-02-03T14:18:42;96115.19;;;8.03;66.24
15405;BME280;7801;48.124;11.590;2023-02-03T14:20:55;96093.72;;;7.94;65.44
15405;BME280;7801;48.124;11.590;2023-02-03T14:23:34;96084.91;;;7.69;66.13
15405;BME280;7801;48.124;11.590;2023-02-03T14:26:04;96086.75;;;7.73;66.29
15405;BME280;7801;48.124;11.590;2023-02-03T14:28:40;96099.22;;;7.83;65.18
15405;BME280;7801;48.124;11.590;2023-02-03T14:31:17;96114.41;;;7.61;65.81
15405;BME280;7801;48.124;11.590;2023-02-03T14:34:10;96105.34;;;7.88;66.87
15405;BME280;7801;48.124;11.590;2023-02-03T14:36:45;96096.00;;;7.76;65.77
15405;BME280;7801;48.124;11.590;2023-02-03T14:42:16;96129.41;;;7.97;66.86
15405;BME280;7801;48.124;11.590;2023-02-03T14:45:06;96123.84;;;7.93;65.88
15405;BME280;7801;48.124;11.590;2023-02-03T14:50:43;96105.97;;;8.06;66.39
15405;BME280;7801;48.124;11.590;2023-02-03T14:58:40;96093.44;;;7.86;67.80
15405;BME280;7801;48.124;11.590;2023-02-03T15:02:09;96066.50;;;7.84;67.23
15405;BME280;7801;48.124;11.590;2023-02-03T15:06:47;96079.47;;;7.48;67.31
15405;BME280;7801;48.124;11.590;2023-02-03T15:11:54;96051.94;;;7.81;67.44
15405;BME280;7801;48.124;11.590;2023-02-03T15:14:22;96074.41;;;7.84;67.21
15405;BME280;7801;48.124;11.590;2023-02-03T15:16:53;96063.09;;;7.88;67.60
15405;BME280;7801;48.124;11.590;2023-02-03T15:19:23;96078.69;;;7.95;67.05
15405;BME280;7801;48.124;11.590;2023-02-03T15:21:49;96080.47;;;7.79;67.40
15405;BME280;7801;48.124;11.590;2023-02-03T15:24:18;96071.72;;;7.74;67.98
15405;BME280;7801;48.124;11.590;2023-02-03T15:26:52;96073.09;;;7.86;67.29
15405;BME280;7801;48.124;11.590;2023-02-03T15:29:30;96073.06;;;7.81;67.63
15405;BME280;7801;48.124;11.590;2023-02-03T15:32:01;96093.91;;;7.78;67.32
15405;BME280;7801;48.124;11.590;2023-02-03T15:34:48;96101.25;;;7.71;68.30
15405;BME280;7801;48.124;11.590;2023-02-03T15:37:17;96105.50;;;7.72;66.93